createdAt,value
2019-02-16T00:00:19.668Z,20.23
2019-02-16T00:02:48.105Z,28.20
2019-02-16T00:05:16.546Z,23.40
2019-02-16T00:07:44.988Z,22.33
2019-02-16T00:10:13.469Z,31.53
2019-02-16T00:12:41.900Z,20.40
2019-02-16T00:15:10.430Z,23.30
2019-02-16T00:17:38.846Z,26.70
2019-02-16T00:20:08.825Z,23.00
2019-02-16T00:22:37.298Z,21.17
2019-02-16T00:25:09.230Z,19.13
2019-02-16T00:27:37.699Z,22.60
2019-02-16T00:30:07.577Z,21.13
2019-02-16T00:32:36.027Z,21.47
2019-02-16T00:35:05.430Z,24.90
2019-02-16T00:37:33.976Z,23.27
2019-02-16T00:40:02.865Z,21.03
2019-02-16T00:42:31.365Z,21.30
2019-02-16T00:44:59.791Z,20.83
2019-02-16T00:47:28.238Z,19.93
2019-02-16T00:49:56.658Z,21.07
2019-02-16T00:52:25.137Z,19.70
2019-02-16T00:54:53.650Z,20.70
2019-02-16T00:57:22.085Z,21.30
2019-02-16T00:59:50.515Z,18.60
2019-02-16T01:02:18.952Z,18.23
2019-02-16T01:04:47.404Z,18.67
2019-02-16T01:07:15.842Z,19.07
2019-02-16T01:09:44.327Z,19.40
2019-02-16T01:12:12.764Z,19.10
2019-02-16T01:14:41.206Z,19.20
2019-02-16T01:17:09.617Z,19.50
2019-02-16T01:19:38.054Z,19.50
2019-02-16T01:22:06.535Z,18.70
2019-02-16T01:24:35.029Z,18.07
2019-02-16T01:27:03.540Z,17.30
2019-02-16T01:29:31.980Z,20.90
2019-02-16T01:32:01.929Z,19.97
2019-02-16T01:34:30.383Z,19.60
2019-02-16T01:37:00.149Z,17.73
2019-02-16T01:39:30.253Z,18.03
2019-02-16T01:41:58.757Z,19.40
2019-02-16T01:44:27.278Z,17.93
2019-02-16T01:46:55.698Z,18.23
2019-02-16T01:49:24.150Z,16.83
2019-02-16T01:51:52.579Z,19.97
2019-02-16T01:54:21.016Z,16.67
2019-02-16T01:56:49.457Z,15.60
2019-02-16T01:59:17.916Z,22.60
2019-02-16T02:01:46.360Z,19.37
2019-02-16T02:04:14.797Z,17.90
2019-02-16T02:06:43.225Z,19.10
2019-02-16T02:09:12.256Z,19.53
2019-02-16T02:11:40.941Z,16.20
2019-02-16T02:14:09.376Z,17.77
2019-02-16T02:16:37.862Z,17.03
2019-02-16T02:19:06.376Z,18.50
2019-02-16T02:21:40.991Z,17.03
2019-02-16T02:24:04.923Z,19.03
2019-02-16T02:26:33.372Z,20.20
2019-02-16T02:29:01.800Z,16.90
2019-02-16T02:31:30.246Z,20.33
2019-02-16T02:33:58.680Z,18.33
2019-02-16T02:36:27.220Z,19.73
2019-02-16T02:38:55.653Z,18.37
2019-02-16T02:41:24.077Z,23.50
2019-02-16T02:43:52.522Z,21.70
2019-02-16T02:46:20.961Z,19.20
2019-02-16T02:48:49.382Z,18.73
2019-02-16T02:51:17.867Z,19.60
2019-02-16T02:53:46.294Z,22.57
2019-02-16T02:56:14.733Z,22.40
2019-02-16T02:58:43.150Z,18.97
2019-02-16T03:01:11.649Z,19.67
2019-02-16T03:03:40.065Z,18.07
2019-02-16T03:06:08.516Z,17.30
2019-02-16T03:08:36.943Z,22.97
2019-02-16T03:11:05.390Z,19.33
2019-02-16T03:13:33.847Z,17.50
2019-02-16T03:16:02.275Z,18.43
2019-02-16T03:18:30.706Z,16.90
2019-02-16T03:20:59.157Z,20.47
2019-02-16T03:23:27.809Z,16.90
2019-02-16T03:26:08.133Z,19.47
2019-02-16T03:28:45.240Z,17.97
2019-02-16T03:31:19.439Z,17.60
2019-02-16T03:33:50.943Z,17.97
2019-02-16T03:36:46.472Z,16.67
2019-02-16T03:39:15.946Z,19.70
2019-02-16T03:41:44.476Z,16.57
2019-02-16T03:44:12.892Z,15.77
2019-02-16T03:46:41.350Z,18.07
2019-02-16T03:49:09.750Z,16.53
2019-02-16T03:51:38.204Z,16.07
2019-02-16T03:54:06.657Z,15.60
2019-02-16T03:56:35.076Z,19.90
2019-02-16T03:59:03.552Z,18.23
2019-02-16T04:01:31.972Z,16.93
2019-02-16T04:04:00.413Z,16.93
2019-02-16T04:06:28.860Z,16.67
2019-02-16T04:08:57.380Z,17.40
2019-02-16T04:11:25.889Z,16.23
2019-02-16T04:13:54.336Z,17.80
2019-02-16T04:16:22.750Z,15.27
2019-02-16T04:18:51.216Z,16.13
2019-02-16T04:21:19.643Z,16.83
2019-02-16T04:23:48.109Z,18.00
2019-02-16T04:26:16.570Z,15.93
2019-02-16T04:28:45.014Z,16.30
2019-02-16T04:31:13.466Z,16.40
2019-02-16T04:33:41.905Z,17.23
2019-02-16T04:36:10.347Z,18.20
2019-02-16T04:38:38.782Z,15.03
2019-02-16T04:41:07.212Z,15.30
2019-02-16T04:43:35.623Z,13.93
2019-02-16T04:46:04.063Z,15.13
2019-02-16T04:48:32.484Z,16.53
2019-02-16T04:51:00.924Z,14.80
2019-02-16T04:53:29.338Z,15.90
2019-02-16T04:55:57.793Z,17.47
2019-02-16T04:58:26.202Z,15.57
2019-02-16T05:00:54.648Z,14.10
2019-02-16T05:03:23.085Z,16.03
2019-02-16T05:05:51.538Z,14.77
2019-02-16T05:08:19.954Z,16.40
2019-02-16T05:10:48.395Z,15.93
2019-02-16T05:13:16.808Z,15.90
2019-02-16T05:15:45.262Z,15.60
2019-02-16T05:18:13.674Z,17.33
2019-02-16T05:20:42.115Z,17.23
2019-02-16T05:23:10.521Z,19.73
2019-02-16T05:25:38.945Z,17.73
2019-02-16T05:28:07.397Z,18.40
2019-02-16T05:30:35.814Z,16.87
2019-02-16T05:33:04.237Z,20.47
2019-02-16T05:35:32.667Z,17.17
2019-02-16T05:38:01.100Z,16.20
2019-02-16T05:40:29.537Z,17.67
2019-02-16T05:42:57.972Z,14.40
2019-02-16T05:45:26.401Z,16.60
2019-02-16T05:47:54.833Z,16.80
2019-02-16T05:50:23.254Z,16.47
2019-02-16T05:52:54.389Z,16.07
2019-02-16T05:55:21.842Z,16.83
2019-02-16T05:57:50.274Z,15.40
2019-02-16T06:00:20.320Z,13.80
2019-02-16T06:02:48.766Z,14.77
2019-02-16T06:05:17.187Z,14.43
2019-02-16T06:07:45.626Z,15.93
2019-02-16T06:10:14.047Z,16.10
2019-02-16T06:12:42.472Z,14.67
2019-02-16T06:15:11.039Z,14.17
2019-02-16T06:17:39.476Z,15.43
2019-02-16T06:20:08.937Z,14.03
2019-02-16T06:22:37.368Z,15.37
2019-02-16T06:25:06.509Z,14.93
2019-02-16T06:27:34.959Z,14.93
2019-02-16T06:30:03.884Z,16.83
2019-02-16T06:32:32.374Z,13.40
2019-02-16T06:35:02.455Z,12.40
2019-02-16T06:37:32.456Z,15.67
2019-02-16T06:40:00.902Z,15.50
2019-02-16T06:42:29.352Z,16.83
2019-02-16T06:44:57.776Z,13.30
2019-02-16T06:47:27.664Z,18.33
2019-02-16T06:49:56.102Z,13.63
2019-02-16T06:52:24.545Z,16.90
2019-02-16T06:54:52.985Z,14.00
2019-02-16T06:57:25.929Z,14.20
2019-02-16T06:59:54.357Z,16.03
2019-02-16T07:02:23.761Z,14.60
2019-02-16T07:04:52.204Z,20.20
2019-02-16T07:07:20.683Z,15.00
2019-02-16T07:09:49.125Z,14.50
2019-02-16T07:12:17.634Z,14.80
2019-02-16T07:14:46.073Z,12.83
2019-02-16T07:17:27.901Z,18.07
2019-02-16T07:19:56.366Z,20.60
2019-02-16T07:22:24.794Z,16.20
2019-02-16T07:24:53.233Z,11.90
2019-02-16T07:27:21.637Z,13.90
2019-02-16T07:29:50.091Z,11.87
2019-02-16T07:32:18.500Z,14.73
2019-02-16T07:34:47.045Z,16.47
2019-02-16T07:37:15.462Z,11.67
2019-02-16T07:39:43.897Z,14.00
2019-02-16T07:42:12.330Z,12.70
2019-02-16T07:44:42.413Z,16.83
2019-02-16T07:47:21.329Z,16.70
2019-02-16T07:50:07.204Z,15.47
2019-02-16T07:52:37.300Z,14.40
2019-02-16T07:55:13.550Z,13.87
2019-02-16T07:57:43.616Z,14.50
2019-02-16T08:00:16.593Z,13.60
2019-02-16T08:02:55.461Z,15.20
2019-02-16T08:05:41.580Z,12.93
2019-02-16T08:08:23.745Z,15.20
2019-02-16T08:10:56.620Z,14.43
2019-02-16T08:13:38.809Z,14.00
2019-02-16T08:16:08.954Z,14.57
2019-02-16T08:18:54.996Z,13.13
2019-02-16T08:21:37.122Z,13.67
2019-02-16T08:24:13.226Z,14.53
2019-02-16T08:26:49.344Z,10.77
2019-02-16T08:29:19.482Z,12.50
2019-02-16T08:31:49.564Z,13.10
2019-02-16T08:34:28.777Z,13.10
2019-02-16T08:36:58.861Z,12.73
2019-02-16T08:39:41.036Z,12.40
2019-02-16T08:42:11.115Z,12.93
2019-02-16T08:44:44.143Z,12.57
2019-02-16T08:47:14.253Z,11.83
2019-02-16T08:49:56.861Z,12.10
2019-02-16T08:52:26.963Z,11.97
2019-02-16T08:54:57.070Z,13.63
2019-02-16T08:57:43.379Z,12.00
2019-02-16T09:00:16.426Z,11.37
2019-02-16T09:02:49.204Z,11.50
2019-02-16T09:05:35.156Z,10.57
2019-02-16T09:08:05.275Z,12.13
2019-02-16T09:10:50.256Z,11.10
2019-02-16T09:13:20.336Z,11.80
2019-02-16T09:15:50.461Z,9.40
2019-02-16T09:18:20.576Z,12.00
2019-02-16T09:21:14.846Z,12.27
2019-02-16T09:23:59.099Z,11.77
2019-02-16T09:26:36.257Z,12.60
2019-02-16T09:29:24.310Z,11.07
2019-02-16T09:31:57.425Z,12.73
2019-02-16T09:34:27.569Z,11.50
2019-02-16T09:37:00.742Z,10.60
2019-02-16T09:39:30.874Z,11.30
2019-02-16T09:42:01.000Z,11.37
2019-02-16T09:44:31.094Z,10.93
2019-02-16T09:47:01.166Z,12.80
2019-02-16T09:49:31.277Z,11.90
2019-02-16T09:52:07.273Z,11.43
2019-02-16T09:54:46.080Z,11.50
2019-02-16T09:57:19.127Z,11.87
2019-02-16T09:59:49.244Z,11.03
2019-02-16T10:02:19.294Z,10.63
2019-02-16T10:04:49.406Z,12.63
2019-02-16T10:07:19.470Z,12.03
2019-02-16T10:09:51.405Z,9.63
2019-02-16T10:12:37.557Z,11.70
2019-02-16T10:15:25.778Z,10.47
2019-02-16T10:18:13.441Z,10.53
2019-02-16T10:20:49.299Z,10.57
2019-02-16T10:23:22.049Z,11.27
2019-02-16T10:25:52.164Z,10.40
2019-02-16T10:28:31.341Z,9.93
2019-02-16T10:31:04.190Z,9.63
2019-02-16T10:33:34.304Z,9.97
2019-02-16T10:36:16.273Z,10.00
2019-02-16T10:38:46.330Z,10.40
2019-02-16T10:41:19.209Z,10.73
2019-02-16T10:43:51.773Z,10.70
2019-02-16T10:46:24.717Z,10.70
2019-02-16T10:49:03.656Z,11.50
2019-02-16T10:51:45.291Z,10.33
2019-02-16T10:54:15.385Z,12.37
2019-02-16T10:56:48.576Z,11.73
2019-02-16T10:59:21.220Z,11.10
2019-02-16T11:01:57.281Z,14.67
2019-02-16T11:04:27.372Z,12.03
2019-02-16T11:06:57.438Z,13.73
2019-02-16T11:09:27.596Z,12.97
2019-02-16T11:12:03.374Z,13.90
2019-02-16T11:14:42.196Z,11.70
2019-02-16T11:17:12.278Z,13.10
2019-02-16T11:19:42.349Z,11.90
2019-02-16T11:22:18.398Z,12.33
2019-02-16T11:24:57.216Z,13.03
2019-02-16T11:27:30.226Z,12.40
2019-02-16T11:30:12.415Z,11.97
2019-02-16T11:32:42.485Z,12.07
2019-02-16T11:35:28.641Z,12.17
2019-02-16T11:38:01.668Z,11.87
2019-02-16T11:40:34.798Z,13.30
2019-02-16T11:43:10.660Z,13.47
2019-02-16T11:45:49.586Z,12.20
2019-02-16T11:48:22.841Z,11.37
2019-02-16T11:50:52.975Z,13.83
2019-02-16T11:53:39.281Z,11.90
2019-02-16T11:56:24.248Z,12.60
2019-02-16T11:59:10.180Z,13.93
2019-02-16T12:01:40.782Z,12.13
2019-02-16T12:04:11.027Z,11.83
2019-02-16T12:06:42.106Z,12.10
2019-02-16T12:09:12.202Z,12.27
2019-02-16T12:11:42.270Z,12.93
2019-02-16T12:14:28.535Z,11.90
2019-02-16T12:17:01.676Z,12.20
2019-02-16T12:19:34.722Z,11.50
2019-02-16T12:22:16.841Z,12.50
2019-02-16T12:25:05.734Z,14.40
2019-02-16T12:27:50.894Z,10.70
2019-02-16T12:30:26.774Z,12.17
2019-02-16T12:32:56.844Z,11.50
2019-02-16T12:35:38.842Z,11.03
2019-02-16T12:38:08.981Z,9.93
2019-02-16T12:40:47.941Z,12.70
2019-02-16T12:43:21.065Z,11.90
2019-02-16T12:45:56.971Z,11.53
2019-02-16T12:48:27.085Z,9.77
2019-02-16T12:51:12.319Z,11.73
2019-02-16T12:53:54.329Z,10.70
2019-02-16T12:56:27.149Z,15.40
2019-02-16T12:59:02.971Z,10.83
2019-02-16T13:01:41.774Z,11.70
2019-02-16T13:04:17.797Z,10.83
2019-02-16T13:06:50.332Z,9.90
2019-02-16T13:09:23.234Z,9.80
2019-02-16T13:11:53.310Z,10.57
2019-02-16T13:14:23.440Z,9.07
2019-02-16T13:16:53.507Z,9.40
2019-02-16T13:19:23.656Z,9.27
2019-02-16T13:21:53.743Z,10.37
2019-02-16T13:24:32.966Z,9.80
2019-02-16T13:27:03.035Z,8.63
2019-02-16T13:29:33.103Z,8.83
2019-02-16T13:32:03.171Z,10.53
2019-02-16T13:34:36.223Z,11.33
2019-02-16T13:37:22.437Z,9.80
2019-02-16T13:39:58.251Z,10.30
2019-02-16T13:42:28.343Z,10.07
2019-02-16T13:45:01.061Z,10.60
2019-02-16T13:47:31.118Z,9.70
2019-02-16T13:50:04.162Z,9.20
2019-02-16T13:52:34.213Z,9.33
2019-02-16T13:55:11.209Z,9.80
2019-02-16T13:57:57.679Z,9.70
2019-02-16T14:00:30.728Z,7.53
2019-02-16T14:03:12.774Z,8.50
2019-02-16T14:05:42.845Z,8.10
2019-02-16T14:08:12.896Z,8.07
2019-02-16T14:10:42.985Z,7.83
2019-02-16T14:13:13.024Z,9.30
2019-02-16T14:16:00.990Z,7.90
2019-02-16T14:18:29.434Z,6.07
2019-02-16T14:20:58.028Z,7.53
2019-02-16T14:23:28.447Z,7.13
2019-02-16T14:25:56.624Z,8.03
2019-02-16T14:28:25.077Z,6.90
2019-02-16T14:30:53.509Z,6.87
2019-02-16T14:33:21.931Z,5.90
2019-02-16T14:35:50.420Z,6.13
2019-02-16T14:38:23.260Z,6.07
2019-02-16T14:40:51.713Z,6.50
2019-02-16T14:43:20.281Z,6.30
2019-02-16T14:45:48.754Z,7.60
2019-02-16T14:48:17.170Z,7.87
2019-02-16T14:50:45.605Z,7.93
2019-02-16T14:53:14.021Z,8.97
2019-02-16T14:55:51.572Z,8.20
2019-02-16T14:58:12.622Z,6.77
2019-02-16T15:00:41.050Z,8.30
2019-02-16T15:03:09.526Z,7.43
2019-02-16T15:05:37.985Z,11.90
2019-02-16T15:08:06.414Z,8.70
2019-02-16T15:10:34.843Z,7.60
2019-02-16T15:13:03.332Z,8.23
2019-02-16T15:15:31.825Z,8.10
2019-02-16T15:18:00.285Z,8.20
2019-02-16T15:20:28.701Z,8.93
2019-02-16T15:22:57.149Z,8.60
2019-02-16T15:25:25.660Z,8.80
2019-02-16T15:27:54.099Z,7.73
2019-02-16T15:30:22.575Z,7.57
2019-02-16T15:32:51.031Z,11.10
2019-02-16T15:35:20.578Z,7.93
2019-02-16T15:37:49.158Z,8.07
2019-02-16T15:40:17.676Z,8.90
2019-02-16T15:42:46.140Z,8.00
2019-02-16T15:45:14.927Z,10.40
2019-02-16T15:47:44.224Z,7.60
2019-02-16T15:50:14.392Z,9.20
2019-02-16T15:52:44.462Z,7.20
2019-02-16T15:55:13.162Z,9.63
2019-02-16T15:57:41.689Z,8.40
2019-02-16T16:00:18.172Z,7.67
2019-02-16T16:02:46.694Z,7.63
2019-02-16T16:05:15.221Z,7.73
2019-02-16T16:07:45.349Z,7.77
2019-02-16T16:10:21.334Z,8.30
2019-02-16T16:13:06.305Z,7.37
2019-02-16T16:15:44.659Z,6.93
2019-02-16T16:18:17.108Z,6.47
2019-02-16T16:20:47.230Z,7.63
2019-02-16T16:23:29.331Z,6.87
2019-02-16T16:26:08.280Z,8.00
2019-02-16T16:28:38.381Z,8.27
2019-02-16T16:31:17.118Z,7.00
2019-02-16T16:33:50.096Z,6.77
2019-02-16T16:36:28.970Z,7.97
2019-02-16T16:38:59.072Z,10.17
2019-02-16T16:41:29.186Z,16.77
2019-02-16T16:44:07.894Z,17.20
2019-02-16T16:46:38.086Z,16.60
2019-02-16T16:49:14.189Z,13.53
2019-02-16T16:52:00.364Z,10.80
2019-02-16T16:54:34.707Z,11.57
2019-02-16T16:57:07.568Z,15.03
2019-02-16T16:59:49.504Z,13.87
2019-02-16T17:02:35.561Z,12.07
2019-02-16T17:05:06.569Z,13.73
2019-02-16T17:07:39.799Z,17.20
2019-02-16T17:10:22.099Z,14.83
2019-02-16T17:12:52.164Z,23.67
2019-02-16T17:15:38.325Z,24.90
2019-02-16T17:18:10.865Z,20.43
2019-02-16T17:20:46.469Z,22.50
2019-02-16T17:23:16.623Z,25.63
2019-02-16T17:25:52.756Z,18.70
2019-02-16T17:28:37.733Z,26.20
2019-02-16T17:31:19.967Z,32.33
2019-02-16T17:33:55.544Z,21.00
2019-02-16T17:36:34.729Z,21.80
2019-02-16T17:39:04.858Z,21.10
2019-02-16T17:41:51.415Z,23.73
2019-02-16T17:44:27.112Z,25.10
2019-02-16T17:46:57.395Z,31.47
2019-02-16T17:49:33.214Z,19.17
2019-02-16T17:52:18.723Z,26.53
2019-02-16T17:54:51.814Z,41.40
2019-02-16T17:57:25.006Z,46.77
2019-02-16T18:00:03.742Z,33.20
2019-02-16T18:02:52.064Z,22.17
2019-02-16T18:05:22.129Z,24.03
2019-02-16T18:07:58.165Z,44.97
2019-02-16T18:10:31.334Z,29.30
2019-02-16T18:13:01.554Z,28.50
2019-02-16T18:15:31.618Z,25.20
2019-02-16T18:18:13.290Z,32.70
2019-02-16T18:20:58.227Z,39.60
2019-02-16T18:23:33.831Z,31.37
2019-02-16T18:26:03.948Z,26.93
2019-02-16T18:28:36.742Z,24.73
2019-02-16T18:31:12.682Z,25.63
2019-02-16T18:34:00.628Z,28.30
2019-02-16T18:36:42.311Z,27.33
2019-02-16T18:39:12.672Z,37.00
2019-02-16T18:41:48.839Z,31.33
2019-02-16T18:44:21.691Z,31.43
2019-02-16T18:47:07.586Z,28.03
2019-02-16T18:49:46.549Z,31.47
2019-02-16T18:52:22.382Z,28.80
2019-02-16T18:54:58.337Z,31.80
2019-02-16T18:57:44.276Z,29.20
2019-02-16T19:00:17.252Z,27.10
2019-02-16T19:02:47.328Z,35.00
2019-02-16T19:05:20.376Z,24.93
2019-02-16T19:07:50.584Z,24.10
2019-02-16T19:10:20.776Z,29.53
2019-02-16T19:12:53.381Z,37.00
2019-02-16T19:15:23.528Z,30.97
2019-02-16T19:17:56.402Z,30.27
2019-02-16T19:20:26.505Z,27.77
2019-02-16T19:22:56.569Z,30.10
2019-02-16T19:25:35.187Z,28.27
2019-02-16T19:28:20.075Z,27.40
2019-02-16T19:30:59.063Z,24.70
2019-02-16T19:33:34.921Z,23.93
2019-02-16T19:36:08.035Z,23.23
2019-02-16T19:38:38.137Z,28.97
2019-02-16T19:41:19.764Z,24.43
2019-02-16T19:43:49.949Z,22.10
2019-02-16T19:46:36.040Z,27.83
2019-02-16T19:49:08.898Z,28.00
2019-02-16T19:51:55.438Z,21.90
2019-02-16T19:54:25.515Z,25.20
2019-02-16T19:56:55.623Z,20.47
2019-02-16T19:59:25.797Z,34.83
2019-02-16T20:02:01.631Z,28.17
2019-02-16T20:04:40.397Z,63.97
2019-02-16T20:07:13.234Z,45.33
2019-02-16T20:09:49.043Z,29.87
2019-02-16T20:12:19.121Z,24.63
2019-02-16T20:14:49.239Z,30.60
2019-02-16T20:17:28.368Z,25.90
2019-02-16T20:20:04.523Z,41.87
2019-02-16T20:22:49.485Z,31.00
2019-02-16T20:25:22.154Z,29.30
2019-02-16T20:27:52.260Z,23.63
2019-02-16T20:30:40.236Z,26.40
2019-02-16T20:33:10.348Z,31.10
2019-02-16T20:35:55.205Z,31.10
2019-02-16T20:38:25.288Z,39.60
2019-02-16T20:40:58.445Z,36.17
2019-02-16T20:43:43.658Z,25.90
2019-02-16T20:46:19.509Z,25.03
2019-02-16T20:48:58.701Z,25.07
2019-02-16T20:51:45.103Z,28.53
2019-02-16T20:54:21.222Z,39.57
2019-02-16T20:57:09.193Z,52.03
2019-02-16T20:59:48.337Z,35.70
2019-02-16T21:02:21.270Z,26.27
2019-02-16T21:04:57.452Z,27.80
2019-02-16T21:07:39.354Z,28.07
2019-02-16T21:10:26.412Z,30.13
2019-02-16T21:12:56.531Z,27.30
2019-02-16T21:15:35.706Z,24.07
2019-02-16T21:18:13.797Z,23.40
2019-02-16T21:20:49.529Z,21.27
2019-02-16T21:23:37.903Z,27.23
2019-02-16T21:26:23.109Z,27.97
2019-02-16T21:28:53.188Z,27.30
2019-02-16T21:31:23.449Z,22.00
2019-02-16T21:33:56.521Z,25.03
2019-02-16T21:36:30.182Z,23.10
2019-02-16T21:39:03.687Z,23.57
2019-02-16T21:41:49.933Z,22.53
2019-02-16T21:44:22.459Z,28.17
2019-02-16T21:47:08.780Z,26.80
2019-02-16T21:49:55.495Z,23.87
2019-02-16T21:52:31.360Z,29.17
2019-02-16T21:55:01.658Z,24.50
2019-02-16T21:57:43.619Z,25.30
2019-02-16T22:00:30.132Z,26.93
2019-02-16T22:03:02.908Z,24.83
2019-02-16T22:05:33.012Z,26.13
2019-02-16T22:08:03.102Z,25.27
2019-02-16T22:10:44.989Z,25.43
2019-02-16T22:13:13.416Z,25.40
2019-02-16T22:15:41.867Z,27.07
2019-02-16T22:18:10.375Z,26.53
2019-02-16T22:20:38.839Z,31.57
2019-02-16T22:23:07.256Z,24.87
2019-02-16T22:25:35.785Z,26.27
2019-02-16T22:28:04.285Z,26.07
2019-02-16T22:30:32.731Z,26.87
2019-02-16T22:33:01.181Z,25.70
2019-02-16T22:35:29.686Z,26.67
2019-02-16T22:37:58.106Z,22.87
2019-02-16T22:40:26.580Z,25.87
2019-02-16T22:42:55.007Z,25.97
2019-02-16T22:45:23.449Z,27.33
2019-02-16T22:47:51.882Z,27.23
2019-02-16T22:50:20.403Z,23.70
2019-02-16T22:52:48.857Z,25.47
2019-02-16T22:55:17.439Z,29.70
2019-02-16T22:57:45.869Z,24.80
2019-02-16T23:00:19.034Z,24.20
2019-02-16T23:02:47.719Z,26.50
2019-02-16T23:05:16.285Z,25.47
2019-02-16T23:07:44.846Z,25.87
2019-02-16T23:10:13.544Z,24.90
2019-02-16T23:12:42.192Z,25.87
2019-02-16T23:15:11.793Z,24.07
2019-02-16T23:17:40.358Z,25.90
2019-02-16T23:20:10.994Z,23.90
2019-02-16T23:22:39.505Z,26.67
2019-02-16T23:25:08.928Z,25.67
2019-02-16T23:27:37.474Z,25.87
2019-02-16T23:30:09.283Z,23.67
2019-02-16T23:32:37.898Z,22.57
2019-02-16T23:35:08.014Z,24.57
2019-02-16T23:37:36.589Z,24.23
2019-02-16T23:40:07.183Z,23.70
2019-02-16T23:42:35.836Z,24.57
2019-02-16T23:45:06.213Z,25.70
2019-02-16T23:47:34.759Z,24.70
2019-02-16T23:50:03.448Z,25.67
2019-02-16T23:52:34.505Z,23.20
2019-02-16T23:55:03.352Z,23.97
2019-02-16T23:57:31.835Z,25.10
